Gil Vicente — CSKG — position and weather

sailwx.info

Track history (hours):
 
Tides and Currents Weather Stations Pressure Air Temp Water Temp Dewpoint Dewpoint Depression Visibility Wind Speed Wind Dir Waves Ship Positions

Gil Vicente

Last reported at 2015-May-22 20:34 UTC. Time now 2015-May-24 15:05 UTC.
Position N 38°39' W 009°05'.

Length 49 m.

Type: Passenger vessel. MMSI: 263701390.

Date/timePositionNaut miles runAvg speedWind from/ knotsBaromVisibWave heightAir tempDewpointWater temp
2015-May-22 20:34N 38°39' W 009°05'0 0.0
2015-May-22 19:32N 38°39' W 009°05'3 3.6
2015-May-22 18:34N 38°42' W 009°08'2 1.9
2015-May-22 17:33N 38°40' W 009°07'2 1.8
2015-May-22 16:33N 38°39' W 009°05'0 0.1
2015-May-22 15:34N 38°39' W 009°05'0 0.1
2015-May-22 14:33N 38°39' W 009°05'0 0.0
2015-May-22 09:19N 38°39' W 009°05'4 5.4
2015-May-22 08:34N 38°42' W 009°08'0 0.0
2015-May-22 07:33N 38°42' W 009°08'3 2.6
2015-May-22 06:33N 38°40' W 009°07'2 0.1
2015-May-21 14:14N 38°39' W 009°05'0 0.0
2015-May-21 13:32N 38°39' W 009°05'0 0.0
2015-May-21 12:33N 38°39' W 009°05'0 0.0
2015-May-21 11:33N 38°39' W 009°05'0 0.0
2015-May-21 10:33N 38°39' W 009°05'1 0.7
2015-May-21 09:33N 38°39' W 009°06'1 0.5
2015-May-21 08:34N 38°40' W 009°06'0 0.2
2015-May-21 07:33N 38°40' W 009°06'1 1.4
2015-May-21 06:33N 38°39' W 009°05'0 0.0
2015-May-21 05:33N 38°39' W 009°05'0 0.0
2015-May-21 04:33N 38°39' W 009°05'4 0.7
2015-May-20 22:33N 38°42' W 009°08'1 1.5
2015-May-20 21:33N 38°41' W 009°08'0 0.1
2015-May-20 20:33N 38°41' W 009°08'1 1.2
2015-May-20 19:33N 38°42' W 009°08'0 0.4
2015-May-20 18:33N 38°42' W 009°08'1 0.7
2015-May-20 17:33N 38°42' W 009°08'3 3.2
2015-May-20 16:34N 38°39' W 009°05'4 3.8
2015-May-20 15:33N 38°42' W 009°08'1 1.5
2015-May-20 14:33N 38°41' W 009°08'0 0.3
2015-May-20 13:33N 38°41' W 009°08'0 0.3
2015-May-20 12:34N 38°41' W 009°08'0 0.2
2015-May-20 11:34N 38°41' W 009°08'0 0.1
2015-May-20 10:33N 38°41' W 009°08'3 3.0
2015-May-20 09:33N 38°39' W 009°05'0 0.0
2015-May-20 08:33N 38°39' W 009°05'4 4.1
2015-May-20 07:34N 38°42' W 009°08'1 0.6
2015-May-20 06:34N 38°42' W 009°08'0 0.0
2015-May-19 18:33N 38°42' W 009°08'0 0.2
2015-May-19 17:33N 38°42' W 009°08'2 2.0
2015-May-19 16:34N 38°40' W 009°07'2 1.7
2015-May-19 15:33N 38°39' W 009°06'1 0.6
2015-May-19 14:34N 38°40' W 009°06'1 0.3
2015-May-19 10:32N 38°39' W 009°05'1 1.4
2015-May-19 09:33N 38°40' W 009°06'0 0.1
2015-May-19 08:33N 38°40' W 009°06'1 0.6
2015-May-19 07:33N 38°40' W 009°07'2 2.1
2015-May-19 06:33N 38°39' W 009°05'0 0.0
2015-May-19 05:33N 38°39' W 009°05'0 0.0
2015-May-19 04:32N 38°39' W 009°05'4 0.7
2015-May-18 22:34N 38°42' W 009°08'1 1.1
2015-May-18 21:33N 38°41' W 009°08'0 0.1
2015-May-18 20:33N 38°41' W 009°08'1 1.1
2015-May-18 19:33N 38°42' W 009°08'1 0.5
2015-May-18 18:33N 38°42' W 009°08'0 0.5
2015-May-18 17:33N 38°42' W 009°08'3 3.2
2015-May-18 16:33N 38°39' W 009°06'4 3.6
2015-May-18 15:33N 38°42' W 009°08'2 1.6
2015-May-18 14:33N 38°41' W 009°08'3 2.8
2015-May-18 13:34N 38°39' W 009°05'0 0.0
2015-May-18 12:27N 38°39' W 009°05'1 1.6
2015-May-18 11:33N 38°40' W 009°06'0 0.4
2015-May-18 10:33N 38°40' W 009°06'1 1.0
2015-May-18 09:34N 38°39' W 009°05'0 0.0
2015-May-18 08:33N 38°39' W 009°05'0 0.0
2015-May-18 07:34N 38°39' W 009°05'2 1.7
2015-May-18 06:33N 38°40' W 009°07'2 1.6
2015-May-18 05:33N 38°39' W 009°05'0 0.0
2015-May-17 10:22N 38°39' W 009°05'1 1.8
2015-May-17 09:33N 38°40' W 009°06'0 0.0
2015-May-17 08:33N 38°40' W 009°06'0 0.1
2015-May-17 07:33N 38°40' W 009°07'0 0.0
2015-May-17 06:33N 38°40' W 009°07'1 1.4
2015-May-17 05:33N 38°41' W 009°08'1 1.3
2015-May-17 04:33N 38°42' W 009°08'4 0.7
2015-May-16 22:25N 38°39' W 009°05'2 2.0
2015-May-16 21:34N 38°40' W 009°07'0 0.4
2015-May-16 20:33N 38°40' W 009°06'0 0.1
2015-May-16 19:33N 38°40' W 009°06'2 1.7
2015-May-16 18:33N 38°41' W 009°08'0 0.0
2015-May-16 17:33N 38°41' W 009°08'0 0.0
2015-May-16 16:33N 38°41' W 009°08'0 0.3
2015-May-16 15:33N 38°41' W 009°08'0 0.1
2015-May-16 14:34N 38°41' W 009°08'3 2.9
2015-May-16 13:33N 38°39' W 009°05'0 0.0
2015-May-16 12:33N 38°39' W 009°05'1 1.2
2015-May-16 11:33N 38°40' W 009°06'0 0.4
2015-May-16 10:34N 38°40' W 009°06'0 0.1
2015-May-16 09:34N 38°40' W 009°06'0 0.2
2015-May-16 08:33N 38°40' W 009°06'0 0.2
2015-May-16 07:33N 38°40' W 009°06'0 0.2
2015-May-16 06:33N 38°40' W 009°06'1 1.5
2015-May-16 05:33N 38°41' W 009°08'1 1.0
2015-May-16 04:33N 38°42' W 009°08'4 1.2
2015-May-16 01:22N 38°39' W 009°05'0 0.5
2015-May-16 00:33N 38°39' W 009°05'0 0.1
2015-May-15 23:34N 38°39' W 009°05'0 0.0
2015-May-15 22:33N 38°39' W 009°05'1 1.3
2015-May-15 21:33N 38°40' W 009°07'0 0.1
2015-May-15 20:34N 38°40' W 009°07'2 1.8
2015-May-15 19:33N 38°39' W 009°05'0 0.0
2015-May-15 18:33N 38°39' W 009°05'1 1.1
2015-May-15 17:33N 38°40' W 009°06'3 3.0
2015-May-15 16:33N 38°42' W 009°08'4 3.9
2015-May-15 15:33N 38°39' W 009°05'0 0.0
2015-May-15 12:26N 38°39' W 009°05'1 1.7
2015-May-15 11:33N 38°40' W 009°07'1 0.7
2015-May-15 10:33N 38°39' W 009°06'1 0.8
2015-May-15 09:32N 38°39' W 009°05'0 0.0
2015-May-15 08:33N 38°39' W 009°05'0 0.0
2015-May-15 07:33N 38°39' W 009°05'1 0.8
2015-May-15 06:33N 38°39' W 009°06'1 0.7
2015-May-15 05:33N 38°39' W 009°05'0 0.0
2015-May-14 20:19N 38°39' W 009°05'4 4.7
2015-May-14 19:33N 38°42' W 009°08'3 3.0
2015-May-14 18:33N 38°39' W 009°06'3 3.3
2015-May-14 17:33N 38°42' W 009°08'0 0.2
2015-May-14 16:33N 38°42' W 009°08'1 0.9
2015-May-14 15:34N 38°41' W 009°08'3 3.4
2015-May-14 14:33N 38°39' W 009°05'2 2.1
2015-May-14 13:33N 38°40' W 009°07'1 0.6
2015-May-14 12:33N 38°40' W 009°06'1 0.4
2015-May-14 09:34N 38°41' W 009°08'3 2.8
2015-May-14 08:33N 38°39' W 009°05'0 0.5
2015-May-14 07:33N 38°39' W 009°05'3 3.5
2015-May-14 06:34N 38°42' W 009°08'1 0.6
2015-May-14 05:33N 38°42' W 009°08'0 0.1
2015-May-14 04:33N 38°42' W 009°08'4 4.1
2015-May-14 03:33N 38°39' W 009°05'0 0.0
2015-May-14 02:32N 38°39' W 009°05'0 0.0
2015-May-14 01:33N 38°39' W 009°05'1 0.6
2015-May-14 00:34N 38°39' W 009°05'0 0.2
2015-May-13 23:34N 38°39' W 009°05'0 0.3
2015-May-13 22:33N 38°39' W 009°05'2 1.6
2015-May-13 21:34N 38°40' W 009°07'0 0.3
2015-May-13 20:34N 38°40' W 009°06'1 1.5
2015-May-13 19:33N 38°39' W 009°05'0 0.0
2015-May-13 18:33N 38°39' W 009°05'1 0.9
2015-May-13 17:33N 38°39' W 009°06'3 3.2
2015-May-13 16:33N 38°42' W 009°08'4 3.9
2015-May-13 15:33N 38°39' W 009°05'0 0.0
2015-May-13 12:24N 38°39' W 009°05'1 1.7
2015-May-13 11:33N 38°40' W 009°06'0 0.1
2015-May-13 10:33N 38°40' W 009°07'2 1.6
2015-May-13 09:33N 38°39' W 009°05'0 0.0
2015-May-13 08:33N 38°39' W 009°05'0 0.0
2015-May-13 07:33N 38°39' W 009°05'1 0.6
2015-May-13 06:34N 38°39' W 009°05'1 0.6
2015-May-13 05:33N 38°39' W 009°05'  
Track history (hours):
 
Tides and Currents Weather Stations Pressure Air Temp Water Temp Dewpoint Dewpoint Depression Visibility Wind Speed Wind Dir Waves Ship Positions

Gil Vicente

Last reported at 2015-May-22 20:34 UTC. Time now 2015-May-24 15:05 UTC.
Position N 38°39' W 009°05'.

Length 49 m.

Type: Passenger vessel. MMSI: 263701390.

Date/timePositionNaut miles runAvg speedWind from/ knotsBaromVisibWave heightAir tempDewpointWater temp
2015-May-22 20:34N 38°39' W 009°05'0 0.0
2015-May-22 19:32N 38°39' W 009°05'3 3.6
2015-May-22 18:34N 38°42' W 009°08'2 1.9
2015-May-22 17:33N 38°40' W 009°07'2 1.8
2015-May-22 16:33N 38°39' W 009°05'0 0.1
2015-May-22 15:34N 38°39' W 009°05'0 0.1
2015-May-22 14:33N 38°39' W 009°05'0 0.0
2015-May-22 09:19N 38°39' W 009°05'4 5.4
2015-May-22 08:34N 38°42' W 009°08'0 0.0
2015-May-22 07:33N 38°42' W 009°08'3 2.6
2015-May-22 06:33N 38°40' W 009°07'2 0.1
2015-May-21 14:14N 38°39' W 009°05'0 0.0
2015-May-21 13:32N 38°39' W 009°05'0 0.0
2015-May-21 12:33N 38°39' W 009°05'0 0.0
2015-May-21 11:33N 38°39' W 009°05'0 0.0
2015-May-21 10:33N 38°39' W 009°05'1 0.7
2015-May-21 09:33N 38°39' W 009°06'1 0.5
2015-May-21 08:34N 38°40' W 009°06'0 0.2
2015-May-21 07:33N 38°40' W 009°06'1 1.4
2015-May-21 06:33N 38°39' W 009°05'0 0.0
2015-May-21 05:33N 38°39' W 009°05'0 0.0
2015-May-21 04:33N 38°39' W 009°05'4 0.7
2015-May-20 22:33N 38°42' W 009°08'1 1.5
2015-May-20 21:33N 38°41' W 009°08'0 0.1
2015-May-20 20:33N 38°41' W 009°08'1 1.2
2015-May-20 19:33N 38°42' W 009°08'0 0.4
2015-May-20 18:33N 38°42' W 009°08'1 0.7
2015-May-20 17:33N 38°42' W 009°08'3 3.2
2015-May-20 16:34N 38°39' W 009°05'4 3.8
2015-May-20 15:33N 38°42' W 009°08'1 1.5
2015-May-20 14:33N 38°41' W 009°08'0 0.3
2015-May-20 13:33N 38°41' W 009°08'0 0.3
2015-May-20 12:34N 38°41' W 009°08'0 0.2
2015-May-20 11:34N 38°41' W 009°08'0 0.1
2015-May-20 10:33N 38°41' W 009°08'3 3.0
2015-May-20 09:33N 38°39' W 009°05'0 0.0
2015-May-20 08:33N 38°39' W 009°05'4 4.1
2015-May-20 07:34N 38°42' W 009°08'1 0.6
2015-May-20 06:34N 38°42' W 009°08'0 0.0
2015-May-19 18:33N 38°42' W 009°08'0 0.2
2015-May-19 17:33N 38°42' W 009°08'2 2.0
2015-May-19 16:34N 38°40' W 009°07'2 1.7
2015-May-19 15:33N 38°39' W 009°06'1 0.6
2015-May-19 14:34N 38°40' W 009°06'1 0.3
2015-May-19 10:32N 38°39' W 009°05'1 1.4
2015-May-19 09:33N 38°40' W 009°06'0 0.1
2015-May-19 08:33N 38°40' W 009°06'1 0.6
2015-May-19 07:33N 38°40' W 009°07'2 2.1
2015-May-19 06:33N 38°39' W 009°05'0 0.0
2015-May-19 05:33N 38°39' W 009°05'0 0.0
2015-May-19 04:32N 38°39' W 009°05'4 0.7
2015-May-18 22:34N 38°42' W 009°08'1 1.1
2015-May-18 21:33N 38°41' W 009°08'0 0.1
2015-May-18 20:33N 38°41' W 009°08'1 1.1
2015-May-18 19:33N 38°42' W 009°08'1 0.5
2015-May-18 18:33N 38°42' W 009°08'0 0.5
2015-May-18 17:33N 38°42' W 009°08'3 3.2
2015-May-18 16:33N 38°39' W 009°06'4 3.6
2015-May-18 15:33N 38°42' W 009°08'2 1.6
2015-May-18 14:33N 38°41' W 009°08'3 2.8
2015-May-18 13:34N 38°39' W 009°05'0 0.0
2015-May-18 12:27N 38°39' W 009°05'1 1.6
2015-May-18 11:33N 38°40' W 009°06'0 0.4
2015-May-18 10:33N 38°40' W 009°06'1 1.0
2015-May-18 09:34N 38°39' W 009°05'0 0.0
2015-May-18 08:33N 38°39' W 009°05'0 0.0
2015-May-18 07:34N 38°39' W 009°05'2 1.7
2015-May-18 06:33N 38°40' W 009°07'2 1.6
2015-May-18 05:33N 38°39' W 009°05'0 0.0
2015-May-17 10:22N 38°39' W 009°05'1 1.8
2015-May-17 09:33N 38°40' W 009°06'0 0.0
2015-May-17 08:33N 38°40' W 009°06'0 0.1
2015-May-17 07:33N 38°40' W 009°07'0 0.0
2015-May-17 06:33N 38°40' W 009°07'1 1.4
2015-May-17 05:33N 38°41' W 009°08'1 1.3
2015-May-17 04:33N 38°42' W 009°08'4 0.7
2015-May-16 22:25N 38°39' W 009°05'2 2.0
2015-May-16 21:34N 38°40' W 009°07'0 0.4
2015-May-16 20:33N 38°40' W 009°06'0 0.1
2015-May-16 19:33N 38°40' W 009°06'2 1.7
2015-May-16 18:33N 38°41' W 009°08'0 0.0
2015-May-16 17:33N 38°41' W 009°08'0 0.0
2015-May-16 16:33N 38°41' W 009°08'0 0.3
2015-May-16 15:33N 38°41' W 009°08'0 0.1
2015-May-16 14:34N 38°41' W 009°08'3 2.9
2015-May-16 13:33N 38°39' W 009°05'0 0.0
2015-May-16 12:33N 38°39' W 009°05'1 1.2
2015-May-16 11:33N 38°40' W 009°06'0 0.4
2015-May-16 10:34N 38°40' W 009°06'0 0.1
2015-May-16 09:34N 38°40' W 009°06'0 0.2
2015-May-16 08:33N 38°40' W 009°06'0 0.2
2015-May-16 07:33N 38°40' W 009°06'0 0.2
2015-May-16 06:33N 38°40' W 009°06'1 1.5
2015-May-16 05:33N 38°41' W 009°08'1 1.0
2015-May-16 04:33N 38°42' W 009°08'4 1.2
2015-May-16 01:22N 38°39' W 009°05'0 0.5
2015-May-16 00:33N 38°39' W 009°05'0 0.1
2015-May-15 23:34N 38°39' W 009°05'0 0.0
2015-May-15 22:33N 38°39' W 009°05'1 1.3
2015-May-15 21:33N 38°40' W 009°07'0 0.1
2015-May-15 20:34N 38°40' W 009°07'2 1.8
2015-May-15 19:33N 38°39' W 009°05'0 0.0
2015-May-15 18:33N 38°39' W 009°05'1 1.1
2015-May-15 17:33N 38°40' W 009°06'3 3.0
2015-May-15 16:33N 38°42' W 009°08'4 3.9
2015-May-15 15:33N 38°39' W 009°05'0 0.0
2015-May-15 12:26N 38°39' W 009°05'1 1.7
2015-May-15 11:33N 38°40' W 009°07'1 0.7
2015-May-15 10:33N 38°39' W 009°06'1 0.8
2015-May-15 09:32N 38°39' W 009°05'0 0.0
2015-May-15 08:33N 38°39' W 009°05'0 0.0
2015-May-15 07:33N 38°39' W 009°05'1 0.8
2015-May-15 06:33N 38°39' W 009°06'1 0.7
2015-May-15 05:33N 38°39' W 009°05'0 0.0
2015-May-14 20:19N 38°39' W 009°05'4 4.7
2015-May-14 19:33N 38°42' W 009°08'3 3.0
2015-May-14 18:33N 38°39' W 009°06'3 3.3
2015-May-14 17:33N 38°42' W 009°08'0 0.2
2015-May-14 16:33N 38°42' W 009°08'1 0.9
2015-May-14 15:34N 38°41' W 009°08'3 3.4
2015-May-14 14:33N 38°39' W 009°05'2 2.1
2015-May-14 13:33N 38°40' W 009°07'1 0.6
2015-May-14 12:33N 38°40' W 009°06'1 0.4
2015-May-14 09:34N 38°41' W 009°08'3 2.8
2015-May-14 08:33N 38°39' W 009°05'0 0.5
2015-May-14 07:33N 38°39' W 009°05'3 3.5
2015-May-14 06:34N 38°42' W 009°08'1 0.6
2015-May-14 05:33N 38°42' W 009°08'0 0.1
2015-May-14 04:33N 38°42' W 009°08'4 4.1
2015-May-14 03:33N 38°39' W 009°05'0 0.0
2015-May-14 02:32N 38°39' W 009°05'0 0.0
2015-May-14 01:33N 38°39' W 009°05'1 0.6
2015-May-14 00:34N 38°39' W 009°05'0 0.2
2015-May-13 23:34N 38°39' W 009°05'0 0.3
2015-May-13 22:33N 38°39' W 009°05'2 1.6
2015-May-13 21:34N 38°40' W 009°07'0 0.3
2015-May-13 20:34N 38°40' W 009°06'1 1.5
2015-May-13 19:33N 38°39' W 009°05'0 0.0
2015-May-13 18:33N 38°39' W 009°05'1 0.9
2015-May-13 17:33N 38°39' W 009°06'3 3.2
2015-May-13 16:33N 38°42' W 009°08'4 3.9
2015-May-13 15:33N 38°39' W 009°05'0 0.0
2015-May-13 12:24N 38°39' W 009°05'1 1.7
2015-May-13 11:33N 38°40' W 009°06'0 0.1
2015-May-13 10:33N 38°40' W 009°07'2 1.6
2015-May-13 09:33N 38°39' W 009°05'0 0.0
2015-May-13 08:33N 38°39' W 009°05'0 0.0
2015-May-13 07:33N 38°39' W 009°05'1 0.6
2015-May-13 06:34N 38°39' W 009°05'1 0.6
2015-May-13 05:33N 38°39' W 009°05'  

Dump ship's entire track history